sensor_id;sensor_type;location;lat;lon;timestamp;temperature;humidity
59469;DHT22;45277;52.768;18.262;2023-05-29T00:00:17;8.70;99.90
59469;DHT22;45277;52.768;18.262;2023-05-29T00:02:08;8.70;99.90
59469;DHT22;45277;52.768;18.262;2023-05-29T00:03:40;8.60;99.90
59469;DHT22;45277;52.768;18.262;2023-05-29T00:05:12;8.60;99.90
59469;DHT22;45277;52.768;18.262;2023-05-29T00:06:44;8.50;99.90
59469;DHT22;45277;52.768;18.262;2023-05-29T00:08:15;8.50;99.90
59469;DHT22;45277;52.768;18.262;2023-05-29T00:09:47;8.40;99.90
59469;DHT22;45277;52.768;18.262;2023-05-29T00:11:18;8.40;99.90
59469;DHT22;45277;52.768;18.262;2023-05-29T00:12:49;8.40;99.90
59469;DHT22;45277;52.768;18.262;2023-05-29T00:14:22;8.40;99.90
59469;DHT22;45277;52.768;18.262;2023-05-29T00:15:54;8.40;99.90
59469;DHT22;45277;52.768;18.262;2023-05-29T00:17:26;8.40;99.90
59469;DHT22;45277;52.768;18.262;2023-05-29T00:18:59;8.40;99.90
59469;DHT22;45277;52.768;18.262;2023-05-29T00:20:30;8.40;99.90
59469;DHT22;45277;52.768;18.262;2023-05-29T00:22:05;8.40;99.90
59469;DHT22;45277;52.768;18.262;2023-05-29T00:23:36;8.40;99.90
59469;DHT22;45277;52.768;18.262;2023-05-29T00:25:08;8.40;99.90
59469;DHT22;45277;52.768;18.262;2023-05-29T00:26:39;8.30;99.90
59469;DHT22;45277;52.768;18.262;2023-05-29T00:28:11;8.20;99.90
59469;DHT22;45277;52.768;18.262;2023-05-29T00:29:43;8.10;99.90
59469;DHT22;45277;52.768;18.262;2023-05-29T00:31:14;8.10;99.90
59469;DHT22;45277;52.768;18.262;2023-05-29T00:32:46;8.00;99.90
59469;DHT22;45277;52.768;18.262;2023-05-29T00:34:17;7.90;99.90
59469;DHT22;45277;52.768;18.262;2023-05-29T00:35:49;7.90;99.90
59469;DHT22;45277;52.768;18.262;2023-05-29T00:37:21;7.80;99.90
59469;DHT22;45277;52.768;18.262;2023-05-29T00:38:52;7.80;99.90
59469;DHT22;45277;52.768;18.262;2023-05-29T00:40:24;7.70;99.90
59469;DHT22;45277;52.768;18.262;2023-05-29T00:41:56;7.70;99.90
59469;DHT22;45277;52.768;18.262;2023-05-29T00:43:28;7.70;99.90
59469;DHT22;45277;52.768;18.262;2023-05-29T00:44:59;7.70;99.90
59469;DHT22;45277;52.768;18.262;2023-05-29T00:46:32;7.60;99.90
59469;DHT22;45277;52.768;18.262;2023-05-29T00:48:04;7.60;99.90
59469;DHT22;45277;52.768;18.262;2023-05-29T00:49:36;7.60;99.90
59469;DHT22;45277;52.768;18.262;2023-05-29T00:51:10;7.50;99.90
59469;DHT22;45277;52.768;18.262;2023-05-29T00:52:44;7.50;99.90
59469;DHT22;45277;52.768;18.262;2023-05-29T00:54:23;7.40;99.90
59469;DHT22;45277;52.768;18.262;2023-05-29T00:55:56;7.40;99.90
59469;DHT22;45277;52.768;18.262;2023-05-29T00:57:28;7.40;99.90
59469;DHT22;45277;52.768;18.262;2023-05-29T00:59:01;7.30;99.90
59469;DHT22;45277;52.768;18.262;2023-05-29T01:00:33;7.30;99.90
59469;DHT22;45277;52.768;18.262;2023-05-29T01:02:05;7.30;99.90
59469;DHT22;45277;52.768;18.262;2023-05-29T01:03:37;7.30;99.90
59469;DHT22;45277;52.768;18.262;2023-05-29T01:05:09;7.20;99.90
59469;DHT22;45277;52.768;18.262;2023-05-29T01:06:40;7.30;99.90
59469;DHT22;45277;52.768;18.262;2023-05-29T01:08:12;7.20;99.90
59469;DHT22;45277;52.768;18.262;2023-05-29T01:09:44;7.20;99.90
59469;DHT22;45277;52.768;18.262;2023-05-29T01:13:22;7.20;99.90
59469;DHT22;45277;52.768;18.262;2023-05-29T01:16:44;7.20;99.90
59469;DHT22;45277;52.768;18.262;2023-05-29T01:18:31;7.20;99.90
59469;DHT22;45277;52.768;18.262;2023-05-29T01:20:34;7.10;99.90
59469;DHT22;45277;52.768;18.262;2023-05-29T01:22:35;7.00;99.90
59469;DHT22;45277;52.768;18.262;2023-05-29T01:24:44;7.00;99.90
59469;DHT22;45277;52.768;18.262;2023-05-29T01:28:11;6.90;99.90
59469;DHT22;45277;52.768;18.262;2023-05-29T01:29:44;6.90;99.90
59469;DHT22;45277;52.768;18.262;2023-05-29T01:31:20;6.90;99.90
59469;DHT22;45277;52.768;18.262;2023-05-29T01:32:52;6.90;99.90
59469;DHT22;45277;52.768;18.262;2023-05-29T01:34:24;6.90;99.90
59469;DHT22;45277;52.768;18.262;2023-05-29T01:35:56;7.10;99.90
59469;DHT22;45277;52.768;18.262;2023-05-29T01:37:27;7.30;99.90
59469;DHT22;45277;52.768;18.262;2023-05-29T01:39:00;7.50;99.90
59469;DHT22;45277;52.768;18.262;2023-05-29T01:40:31;7.70;99.90
59469;DHT22;45277;52.768;18.262;2023-05-29T01:42:03;7.80;99.90
59469;DHT22;45277;52.768;18.262;2023-05-29T01:43:36;8.00;99.90
59469;DHT22;45277;52.768;18.262;2023-05-29T01:45:08;8.10;99.90
59469;DHT22;45277;52.768;18.262;2023-05-29T01:46:41;8.20;99.90
59469;DHT22;45277;52.768;18.262;2023-05-29T01:48:12;8.20;99.90
59469;DHT22;45277;52.768;18.262;2023-05-29T01:49:44;8.30;99.90
59469;DHT22;45277;52.768;18.262;2023-05-29T01:51:18;8.40;99.90
59469;DHT22;45277;52.768;18.262;2023-05-29T01:52:49;8.40;99.90
59469;DHT22;45277;52.768;18.262;2023-05-29T01:54:21;8.50;99.90
59469;DHT22;45277;52.768;18.262;2023-05-29T01:55:52;8.60;99.90
59469;DHT22;45277;52.768;18.262;2023-05-29T01:57:25;8.60;99.90
59469;DHT22;45277;52.768;18.262;2023-05-29T01:58:58;8.60;99.90
59469;DHT22;45277;52.768;18.262;2023-05-29T02:00:32;8.70;99.90
59469;DHT22;45277;52.768;18.262;2023-05-29T02:02:09;8.80;99.90
59469;DHT22;45277;52.768;18.262;2023-05-29T02:03:43;8.80;99.90
59469;DHT22;45277;52.768;18.262;2023-05-29T02:05:14;8.90;99.90
59469;DHT22;45277;52.768;18.262;2023-05-29T02:06:46;8.90;99.90
59469;DHT22;45277;52.768;18.262;2023-05-29T02:08:17;9.00;99.90
59469;DHT22;45277;52.768;18.262;2023-05-29T02:09:48;9.00;99.90
59469;DHT22;45277;52.768;18.262;2023-05-29T02:11:20;9.20;99.90
59469;DHT22;45277;52.768;18.262;2023-05-29T02:12:51;9.20;99.90
59469;DHT22;45277;52.768;18.262;2023-05-29T02:14:23;9.10;99.90
59469;DHT22;45277;52.768;18.262;2023-05-29T02:15:57;9.00;99.90
59469;DHT22;45277;52.768;18.262;2023-05-29T02:17:28;8.90;99.90
59469;DHT22;45277;52.768;18.262;2023-05-29T02:19:01;8.80;99.90
59469;DHT22;45277;52.768;18.262;2023-05-29T02:20:32;8.70;99.90
59469;DHT22;45277;52.768;18.262;2023-05-29T02:22:04;8.50;99.90
59469;DHT22;45277;52.768;18.262;2023-05-29T02:23:36;8.40;99.90
59469;DHT22;45277;52.768;18.262;2023-05-29T02:25:07;8.30;99.90
59469;DHT22;45277;52.768;18.262;2023-05-29T02:26:39;8.20;99.90
59469;DHT22;45277;52.768;18.262;2023-05-29T02:28:11;8.00;99.90
59469;DHT22;45277;52.768;18.262;2023-05-29T02:29:42;7.90;99.90
59469;DHT22;45277;52.768;18.262;2023-05-29T02:31:15;7.80;99.90
59469;DHT22;45277;52.768;18.262;2023-05-29T02:32:46;7.60;99.90
59469;DHT22;45277;52.768;18.262;2023-05-29T02:34:17;7.60;99.90
59469;DHT22;45277;52.768;18.262;2023-05-29T02:35:49;7.50;99.90
59469;DHT22;45277;52.768;18.262;2023-05-29T02:37:20;7.50;99.90
59469;DHT22;45277;52.768;18.262;2023-05-29T02:38:56;7.40;99.90
59469;DHT22;45277;52.768;18.262;2023-05-29T02:40:28;7.40;99.90
59469;DHT22;45277;52.768;18.262;2023-05-29T02:41:59;7.30;99.90
59469;DHT22;45277;52.768;18.262;2023-05-29T02:43:30;7.30;99.90
59469;DHT22;45277;52.768;18.262;2023-05-29T02:45:02;7.30;99.90
59469;DHT22;45277;52.768;18.262;2023-05-29T02:46:33;7.30;99.90
59469;DHT22;45277;52.768;18.262;2023-05-29T02:48:05;7.30;99.90
59469;DHT22;45277;52.768;18.262;2023-05-29T02:49:37;7.20;99.90
59469;DHT22;45277;52.768;18.262;2023-05-29T02:51:08;7.20;99.90
59469;DHT22;45277;52.768;18.262;2023-05-29T02:52:40;7.10;99.90
59469;DHT22;45277;52.768;18.262;2023-05-29T02:54:12;7.00;99.90
59469;DHT22;45277;52.768;18.262;2023-05-29T02:55:44;7.00;99.90
59469;DHT22;45277;52.768;18.262;2023-05-29T02:57:16;7.00;99.90
59469;DHT22;45277;52.768;18.262;2023-05-29T02:58:47;6.90;99.90
59469;DHT22;45277;52.768;18.262;2023-05-29T03:00:19;6.90;99.90
59469;DHT22;45277;52.768;18.262;2023-05-29T03:01:51;6.90;99.90
59469;DHT22;45277;52.768;18.262;2023-05-29T03:03:24;7.00;99.90
59469;DHT22;45277;52.768;18.262;2023-05-29T03:04:55;7.00;99.90
59469;DHT22;45277;52.768;18.262;2023-05-29T03:06:26;7.00;99.90
59469;DHT22;45277;52.768;18.262;2023-05-29T03:07:58;7.00;99.90
59469;DHT22;45277;52.768;18.262;2023-05-29T03:09:29;7.00;99.90
59469;DHT22;45277;52.768;18.262;2023-05-29T03:11:01;7.10;99.90
59469;DHT22;45277;52.768;18.262;2023-05-29T03:12:32;7.10;99.90
59469;DHT22;45277;52.768;18.262;2023-05-29T03:14:03;7.10;99.90
59469;DHT22;45277;52.768;18.262;2023-05-29T03:15:35;7.20;99.90
59469;DHT22;45277;52.768;18.262;2023-05-29T03:17:07;7.20;99.90
59469;DHT22;45277;52.768;18.262;2023-05-29T03:18:38;7.30;99.90
59469;DHT22;45277;52.768;18.262;2023-05-29T03:20:11;7.30;99.90
59469;DHT22;45277;52.768;18.262;2023-05-29T03:21:42;7.30;99.90
59469;DHT22;45277;52.768;18.262;2023-05-29T03:23:14;7.40;99.90
59469;DHT22;45277;52.768;18.262;2023-05-29T03:24:45;7.50;99.90
59469;DHT22;45277;52.768;18.262;2023-05-29T03:26:16;7.60;99.90
59469;DHT22;45277;52.768;18.262;2023-05-29T03:27:48;7.70;99.90
59469;DHT22;45277;52.768;18.262;2023-05-29T03:29:19;7.70;99.90
59469;DHT22;45277;52.768;18.262;2023-05-29T03:30:51;7.80;99.90
59469;DHT22;45277;52.768;18.262;2023-05-29T03:32:22;7.90;99.90
59469;DHT22;45277;52.768;18.262;2023-05-29T03:33:53;7.90;99.90
59469;DHT22;45277;52.768;18.262;2023-05-29T03:35:25;8.00;99.90
59469;DHT22;45277;52.768;18.262;2023-05-29T03:36:56;8.10;99.90
59469;DHT22;45277;52.768;18.262;2023-05-29T03:38:28;8.10;99.90
59469;DHT22;45277;52.768;18.262;2023-05-29T03:40:00;8.10;99.90
59469;DHT22;45277;52.768;18.262;2023-05-29T03:41:31;8.20;99.90
59469;DHT22;45277;52.768;18.262;2023-05-29T03:43:02;8.30;99.90
59469;DHT22;45277;52.768;18.262;2023-05-29T03:44:34;8.30;99.90
59469;DHT22;45277;52.768;18.262;2023-05-29T03:46:05;8.40;99.90
59469;DHT22;45277;52.768;18.262;2023-05-29T03:47:37;8.50;99.90
59469;DHT22;45277;52.768;18.262;2023-05-29T03:49:08;8.60;99.90
59469;DHT22;45277;52.768;18.262;2023-05-29T03:50:40;8.70;99.90
59469;DHT22;45277;52.768;18.262;2023-05-29T03:52:11;8.80;99.90
59469;DHT22;45277;52.768;18.262;2023-05-29T03:53:43;8.90;99.90
59469;DHT22;45277;52.768;18.262;2023-05-29T03:55:14;9.00;99.90
59469;DHT22;45277;52.768;18.262;2023-05-29T03:56:46;9.10;99.90
59469;DHT22;45277;52.768;18.262;2023-05-29T03:58:17;9.10;99.90
59469;DHT22;45277;52.768;18.262;2023-05-29T03:59:49;9.30;99.90
59469;DHT22;45277;52.768;18.262;2023-05-29T04:01:20;9.40;99.90
59469;DHT22;45277;52.768;18.262;2023-05-29T04:02:52;9.50;99.90
59469;DHT22;45277;52.768;18.262;2023-05-29T04:04:23;9.60;99.90
59469;DHT22;45277;52.768;18.262;2023-05-29T04:05:54;9.70;99.90
59469;DHT22;45277;52.768;18.262;2023-05-29T04:07:26;9.90;99.90
59469;DHT22;45277;52.768;18.262;2023-05-29T04:08:58;10.10;99.90
59469;DHT22;45277;52.768;18.262;2023-05-29T04:10:29;10.20;99.90
59469;DHT22;45277;52.768;18.262;2023-05-29T04:12:05;10.30;99.90
59469;DHT22;45277;52.768;18.262;2023-05-29T04:13:36;10.50;99.90
59469;DHT22;45277;52.768;18.262;2023-05-29T04:15:08;10.60;99.90
59469;DHT22;45277;52.768;18.262;2023-05-29T04:16:40;10.70;99.90
59469;DHT22;45277;52.768;18.262;2023-05-29T04:18:11;10.80;99.90
59469;DHT22;45277;52.768;18.262;2023-05-29T04:19:43;10.80;99.90
59469;DHT22;45277;52.768;18.262;2023-05-29T04:21:14;10.80;99.90
59469;DHT22;45277;52.768;18.262;2023-05-29T04:22:46;10.90;99.90
59469;DHT22;45277;52.768;18.262;2023-05-29T04:24:17;11.10;99.90
59469;DHT22;45277;52.768;18.262;2023-05-29T04:25:49;11.20;99.90
59469;DHT22;45277;52.768;18.262;2023-05-29T04:27:23;11.20;99.90
59469;DHT22;45277;52.768;18.262;2023-05-29T04:28:55;11.20;99.90
59469;DHT22;45277;52.768;18.262;2023-05-29T04:30:30;11.30;99.90
59469;DHT22;45277;52.768;18.262;2023-05-29T04:32:03;11.30;99.90
59469;DHT22;45277;52.768;18.262;2023-05-29T04:33:35;11.40;99.90
59469;DHT22;45277;52.768;18.262;2023-05-29T04:35:08;11.50;99.90
59469;DHT22;45277;52.768;18.262;2023-05-29T04:36:40;11.60;99.90
59469;DHT22;45277;52.768;18.262;2023-05-29T04:38:12;11.60;99.90
59469;DHT22;45277;52.768;18.262;2023-05-29T04:39:44;11.70;99.90
59469;DHT22;45277;52.768;18.262;2023-05-29T04:41:15;11.70;99.90
59469;DHT22;45277;52.768;18.262;2023-05-29T04:42:47;11.80;99.90
59469;DHT22;45277;52.768;18.262;2023-05-29T04:44:19;11.90;99.90
59469;DHT22;45277;52.768;18.262;2023-05-29T04:45:50;12.00;99.90
59469;DHT22;45277;52.768;18.262;2023-05-29T04:47:22;12.10;99.90
59469;DHT22;45277;52.768;18.262;2023-05-29T04:48:53;12.20;99.90
59469;DHT22;45277;52.768;18.262;2023-05-29T04:50:25;12.30;99.90
59469;DHT22;45277;52.768;18.262;2023-05-29T04:51:58;12.50;99.90
59469;DHT22;45277;52.768;18.262;2023-05-29T04:53:32;12.50;99.90
59469;DHT22;45277;52.768;18.262;2023-05-29T04:55:04;12.60;99.90
59469;DHT22;45277;52.768;18.262;2023-05-29T04:56:35;12.60;99.90
59469;DHT22;45277;52.768;18.262;2023-05-29T04:58:08;12.70;99.90
59469;DHT22;45277;52.768;18.262;2023-05-29T04:59:40;12.70;99.90
59469;DHT22;45277;52.768;18.262;2023-05-29T05:01:11;12.70;99.90
59469;DHT22;45277;52.768;18.262;2023-05-29T05:02:45;12.70;99.90
59469;DHT22;45277;52.768;18.262;2023-05-29T05:04:18;12.70;99.90
59469;DHT22;45277;52.768;18.262;2023-05-29T05:05:49;12.80;99.90
59469;DHT22;45277;52.768;18.262;2023-05-29T05:07:21;12.90;99.90
59469;DHT22;45277;52.768;18.262;2023-05-29T05:08:53;12.90;99.90
59469;DHT22;45277;52.768;18.262;2023-05-29T05:10:24;12.90;99.90
59469;DHT22;45277;52.768;18.262;2023-05-29T05:11:56;13.00;99.90
59469;DHT22;45277;52.768;18.262;2023-05-29T05:13:28;13.00;99.90
59469;DHT22;45277;52.768;18.262;2023-05-29T05:14:59;13.10;99.90
59469;DHT22;45277;52.768;18.262;2023-05-29T05:16:31;13.20;99.90
59469;DHT22;45277;52.768;18.262;2023-05-29T05:18:04;13.20;99.90
59469;DHT22;45277;52.768;18.262;2023-05-29T05:19:35;13.20;99.90
59469;DHT22;45277;52.768;18.262;2023-05-29T05:21:07;13.20;99.90
59469;DHT22;45277;52.768;18.262;2023-05-29T05:22:39;13.20;99.90
59469;DHT22;45277;52.768;18.262;2023-05-29T05:24:10;13.20;99.90
59469;DHT22;45277;52.768;18.262;2023-05-29T05:25:42;13.20;99.90
59469;DHT22;45277;52.768;18.262;2023-05-29T05:27:13;13.20;99.90
59469;DHT22;45277;52.768;18.262;2023-05-29T05:28:45;13.30;99.90
59469;DHT22;45277;52.768;18.262;2023-05-29T05:30:17;13.40;99.90
59469;DHT22;45277;52.768;18.262;2023-05-29T05:31:48;13.60;99.90
59469;DHT22;45277;52.768;18.262;2023-05-29T05:33:19;13.60;99.90
59469;DHT22;45277;52.768;18.262;2023-05-29T05:34:51;13.60;99.90
59469;DHT22;45277;52.768;18.262;2023-05-29T05:36:23;13.80;99.90
59469;DHT22;45277;52.768;18.262;2023-05-29T05:37:54;13.80;99.90
59469;DHT22;45277;52.768;18.262;2023-05-29T05:39:29;13.90;99.90
59469;DHT22;45277;52.768;18.262;2023-05-29T05:41:00;13.90;99.90
59469;DHT22;45277;52.768;18.262;2023-05-29T05:42:32;13.90;99.90
59469;DHT22;45277;52.768;18.262;2023-05-29T05:44:04;14.10;99.90
59469;DHT22;45277;52.768;18.262;2023-05-29T05:45:35;14.20;99.90
59469;DHT22;45277;52.768;18.262;2023-05-29T05:47:08;14.30;99.30
59469;DHT22;45277;52.768;18.262;2023-05-29T05:48:40;14.40;99.90
59469;DHT22;45277;52.768;18.262;2023-05-29T05:50:12;14.40;99.90
59469;DHT22;45277;52.768;18.262;2023-05-29T05:51:43;14.20;99.90
59469;DHT22;45277;52.768;18.262;2023-05-29T05:53:15;14.40;99.90
59469;DHT22;45277;52.768;18.262;2023-05-29T05:54:47;14.20;99.90
59469;DHT22;45277;52.768;18.262;2023-05-29T05:56:19;14.20;99.90
59469;DHT22;45277;52.768;18.262;2023-05-29T05:57:50;14.10;99.90
59469;DHT22;45277;52.768;18.262;2023-05-29T05:59:22;14.20;99.90
59469;DHT22;45277;52.768;18.262;2023-05-29T06:00:53;14.30;99.90
59469;DHT22;45277;52.768;18.262;2023-05-29T06:02:25;14.40;99.90
59469;DHT22;45277;52.768;18.262;2023-05-29T06:03:57;14.50;99.90
59469;DHT22;45277;52.768;18.262;2023-05-29T06:05:28;14.70;99.90
59469;DHT22;45277;52.768;18.262;2023-05-29T06:07:00;14.70;98.30
59469;DHT22;45277;52.768;18.262;2023-05-29T06:08:31;14.80;95.30
59469;DHT22;45277;52.768;18.262;2023-05-29T06:10:04;14.90;96.80
59469;DHT22;45277;52.768;18.262;2023-05-29T06:11:35;14.90;93.80
59469;DHT22;45277;52.768;18.262;2023-05-29T06:13:08;14.90;92.50
59469;DHT22;45277;52.768;18.262;2023-05-29T06:14:39;15.00;96.30
59469;DHT22;45277;52.768;18.262;2023-05-29T06:16:11;15.00;90.80
59469;DHT22;45277;52.768;18.262;2023-05-29T06:17:42;15.10;76.00
59469;DHT22;45277;52.768;18.262;2023-05-29T06:19:14;15.20;91.50
59469;DHT22;45277;52.768;18.262;2023-05-29T06:20:46;15.30;92.40
59469;DHT22;45277;52.768;18.262;2023-05-29T06:22:18;15.40;86.50
59469;DHT22;45277;52.768;18.262;2023-05-29T06:23:49;15.50;90.90
59469;DHT22;45277;52.768;18.262;2023-05-29T06:25:21;15.50;88.10
59469;DHT22;45277;52.768;18.262;2023-05-29T06:26:53;15.70;72.00
59469;DHT22;45277;52.768;18.262;2023-05-29T06:28:24;15.80;46.40
59469;DHT22;45277;52.768;18.262;2023-05-29T06:29:56;15.90;37.20
59469;DHT22;45277;52.768;18.262;2023-05-29T06:31:27;16.10;42.60
59469;DHT22;45277;52.768;18.262;2023-05-29T06:32:59;16.20;39.80
59469;DHT22;45277;52.768;18.262;2023-05-29T06:34:31;16.20;35.00
59469;DHT22;45277;52.768;18.262;2023-05-29T06:36:03;16.30;55.50
59469;DHT22;45277;52.768;18.262;2023-05-29T06:37:34;16.30;63.80
59469;DHT22;45277;52.768;18.262;2023-05-29T06:39:06;16.30;53.10
59469;DHT22;45277;52.768;18.262;2023-05-29T06:40:37;16.40;50.80
59469;DHT22;45277;52.768;18.262;2023-05-29T06:42:08;16.40;40.90
59469;DHT22;45277;52.768;18.262;2023-05-29T06:43:40;16.50;33.40
59469;DHT22;45277;52.768;18.262;2023-05-29T06:45:12;16.80;19.50
59469;DHT22;45277;52.768;18.262;2023-05-29T06:46:46;16.90;20.10
59469;DHT22;45277;52.768;18.262;2023-05-29T06:48:17;17.00;17.20
59469;DHT22;45277;52.768;18.262;2023-05-29T06:49:49;17.10;17.00
59469;DHT22;45277;52.768;18.262;2023-05-29T06:51:20;17.10;19.80
59469;DHT22;45277;52.768;18.262;2023-05-29T06:52:52;17.10;17.00
59469;DHT22;45277;52.768;18.262;2023-05-29T06:54:23;17.30;11.30
59469;DHT22;45277;52.768;18.262;2023-05-29T06:55:55;17.40;6.90
59469;DHT22;45277;52.768;18.262;2023-05-29T06:57:26;17.50;7.40
59469;DHT22;45277;52.768;18.262;2023-05-29T06:58:57;17.70;1.00
59469;DHT22;45277;52.768;18.262;2023-05-29T07:00:29;17.70;13.40
59469;DHT22;45277;52.768;18.262;2023-05-29T07:02:00;17.70;10.60
59469;DHT22;45277;52.768;18.262;2023-05-29T07:03:32;17.80;1.00
59469;DHT22;45277;52.768;18.262;2023-05-29T07:05:04;17.80;1.00
59469;DHT22;45277;52.768;18.262;2023-05-29T07:06:36;17.80;1.00
59469;DHT22;45277;52.768;18.262;2023-05-29T07:08:07;17.90;1.00
59469;DHT22;45277;52.768;18.262;2023-05-29T07:09:39;18.00;1.00
59469;DHT22;45277;52.768;18.262;2023-05-29T07:11:10;18.00;1.00
59469;DHT22;45277;52.768;18.262;2023-05-29T07:12:42;18.00;10.90
59469;DHT22;45277;52.768;18.262;2023-05-29T07:14:13;18.10;1.10
59469;DHT22;45277;52.768;18.262;2023-05-29T07:15:46;18.20;3.40
59469;DHT22;45277;52.768;18.262;2023-05-29T07:17:17;18.20;2.90
59469;DHT22;45277;52.768;18.262;2023-05-29T07:18:48;18.10;1.00
59469;DHT22;45277;52.768;18.262;2023-05-29T07:20:20;18.20;1.00
59469;DHT22;45277;52.768;18.262;2023-05-29T07:21:52;18.40;1.00
59469;DHT22;45277;52.768;18.262;2023-05-29T07:23:24;18.50;1.00
59469;DHT22;45277;52.768;18.262;2023-05-29T07:24:56;18.60;1.00
59469;DHT22;45277;52.768;18.262;2023-05-29T07:26:27;18.60;1.00
59469;DHT22;45277;52.768;18.262;2023-05-29T07:27:59;18.70;1.00
59469;DHT22;45277;52.768;18.262;2023-05-29T07:29:30;18.70;1.00
59469;DHT22;45277;52.768;18.262;2023-05-29T07:31:01;18.60;1.00
59469;DHT22;45277;52.768;18.262;2023-05-29T07:32:33;18.60;1.00
59469;DHT22;45277;52.768;18.262;2023-05-29T07:34:05;18.60;1.00
59469;DHT22;45277;52.768;18.262;2023-05-29T07:35:37;18.80;1.00
59469;DHT22;45277;52.768;18.262;2023-05-29T07:37:08;19.00;1.00
59469;DHT22;45277;52.768;18.262;2023-05-29T07:38:40;19.10;1.00
59469;DHT22;45277;52.768;18.262;2023-05-29T07:40:11;19.10;1.00
59469;DHT22;45277;52.768;18.262;2023-05-29T07:41:42;19.10;1.00
59469;DHT22;45277;52.768;18.262;2023-05-29T07:43:14;19.20;1.00
59469;DHT22;45277;52.768;18.262;2023-05-29T07:44:45;19.20;1.00
59469;DHT22;45277;52.768;18.262;2023-05-29T07:46:17;19.10;1.00
59469;DHT22;45277;52.768;18.262;2023-05-29T07:47:49;19.10;1.00
59469;DHT22;45277;52.768;18.262;2023-05-29T07:49:21;19.30;1.00
59469;DHT22;45277;52.768;18.262;2023-05-29T07:50:52;19.50;1.00
59469;DHT22;45277;52.768;18.262;2023-05-29T07:52:24;19.40;1.00
59469;DHT22;45277;52.768;18.262;2023-05-29T07:53:55;19.30;1.00
59469;DHT22;45277;52.768;18.262;2023-05-29T07:55:27;19.40;1.00
59469;DHT22;45277;52.768;18.262;2023-05-29T07:56:59;19.50;1.00
59469;DHT22;45277;52.768;18.262;2023-05-29T07:58:30;19.60;1.00
59469;DHT22;45277;52.768;18.262;2023-05-29T08:00:03;19.60;1.00
59469;DHT22;45277;52.768;18.262;2023-05-29T08:01:39;19.80;1.00
59469;DHT22;45277;52.768;18.262;2023-05-29T08:03:11;20.00;1.00
59469;DHT22;45277;52.768;18.262;2023-05-29T08:04:42;20.00;1.00
59469;DHT22;45277;52.768;18.262;2023-05-29T08:06:14;20.10;1.00
59469;DHT22;45277;52.768;18.262;2023-05-29T08:07:46;20.20;1.00
59469;DHT22;45277;52.768;18.262;2023-05-29T08:09:19;20.20;1.00
59469;DHT22;45277;52.768;18.262;2023-05-29T08:10:50;20.00;1.00
59469;DHT22;45277;52.768;18.262;2023-05-29T08:12:22;20.00;1.00
59469;DHT22;45277;52.768;18.262;2023-05-29T08:13:53;20.10;1.00
59469;DHT22;45277;52.768;18.262;2023-05-29T08:15:25;20.30;1.00
59469;DHT22;45277;52.768;18.262;2023-05-29T08:16:57;20.50;1.00
59469;DHT22;45277;52.768;18.262;2023-05-29T08:18:31;20.60;1.00
59469;DHT22;45277;52.768;18.262;2023-05-29T08:20:04;20.80;1.00
59469;DHT22;45277;52.768;18.262;2023-05-29T08:21:38;20.70;1.00
59469;DHT22;45277;52.768;18.262;2023-05-29T08:23:11;20.80;1.00
59469;DHT22;45277;52.768;18.262;2023-05-29T08:24:42;21.00;1.00
59469;DHT22;45277;52.768;18.262;2023-05-29T08:26:14;21.10;1.00
59469;DHT22;45277;52.768;18.262;2023-05-29T08:27:46;21.00;1.00
59469;DHT22;45277;52.768;18.262;2023-05-29T08:29:18;20.90;1.00
59469;DHT22;45277;52.768;18.262;2023-05-29T08:30:50;20.80;1.00
59469;DHT22;45277;52.768;18.262;2023-05-29T08:32:22;20.90;1.00
59469;DHT22;45277;52.768;18.262;2023-05-29T08:33:54;20.80;1.00
59469;DHT22;45277;52.768;18.262;2023-05-29T08:35:25;20.80;1.00
59469;DHT22;45277;52.768;18.262;2023-05-29T08:36:57;20.90;1.00
59469;DHT22;45277;52.768;18.262;2023-05-29T08:38:29;20.90;1.00
59469;DHT22;45277;52.768;18.262;2023-05-29T08:40:00;20.90;1.00
59469;DHT22;45277;52.768;18.262;2023-05-29T08:42:00;20.80;1.00
59469;DHT22;45277;52.768;18.262;2023-05-29T08:43:33;20.70;1.00
59469;DHT22;45277;52.768;18.262;2023-05-29T08:45:07;20.50;1.00
59469;DHT22;45277;52.768;18.262;2023-05-29T08:46:40;20.50;1.00
59469;DHT22;45277;52.768;18.262;2023-05-29T08:48:12;20.60;1.00
59469;DHT22;45277;52.768;18.262;2023-05-29T08:49:47;20.70;1.00
59469;DHT22;45277;52.768;18.262;2023-05-29T08:51:23;20.80;1.00
59469;DHT22;45277;52.768;18.262;2023-05-29T08:53:01;20.80;1.00
59469;DHT22;45277;52.768;18.262;2023-05-29T08:54:32;20.90;1.00
59469;DHT22;45277;52.768;18.262;2023-05-29T08:56:04;21.00;1.00
59469;DHT22;45277;52.768;18.262;2023-05-29T08:57:37;21.00;1.00
59469;DHT22;45277;52.768;18.262;2023-05-29T08:59:11;21.00;1.00
59469;DHT22;45277;52.768;18.262;2023-05-29T09:00:48;21.00;1.00
59469;DHT22;45277;52.768;18.262;2023-05-29T09:02:20;20.90;1.00
59469;DHT22;45277;52.768;18.262;2023-05-29T09:03:51;21.00;1.00
59469;DHT22;45277;52.768;18.262;2023-05-29T09:05:22;21.10;1.00
59469;DHT22;45277;52.768;18.262;2023-05-29T09:06:55;21.20;1.00
59469;DHT22;45277;52.768;18.262;2023-05-29T09:08:26;21.10;1.00
59469;DHT22;45277;52.768;18.262;2023-05-29T09:09:59;21.10;1.00
59469;DHT22;45277;52.768;18.262;2023-05-29T09:11:31;21.20;1.00
59469;DHT22;45277;52.768;18.262;2023-05-29T09:13:04;21.30;1.00
59469;DHT22;45277;52.768;18.262;2023-05-29T09:14:38;21.30;1.00
59469;DHT22;45277;52.768;18.262;2023-05-29T09:16:10;21.40;1.00
59469;DHT22;45277;52.768;18.262;2023-05-29T09:17:42;21.60;1.00
59469;DHT22;45277;52.768;18.262;2023-05-29T09:19:13;21.60;1.00
59469;DHT22;45277;52.768;18.262;2023-05-29T09:20:45;21.70;1.00
59469;DHT22;45277;52.768;18.262;2023-05-29T09:22:16;21.70;1.00
59469;DHT22;45277;52.768;18.262;2023-05-29T09:23:52;21.70;1.00
59469;DHT22;45277;52.768;18.262;2023-05-29T09:25:25;21.80;1.00
59469;DHT22;45277;52.768;18.262;2023-05-29T09:26:59;21.80;1.00
59469;DHT22;45277;52.768;18.262;2023-05-29T09:28:31;21.80;1.00
59469;DHT22;45277;52.768;18.262;2023-05-29T09:30:04;21.70;1.00
59469;DHT22;45277;52.768;18.262;2023-05-29T09:31:42;21.80;1.00
59469;DHT22;45277;52.768;18.262;2023-05-29T09:33:17;22.00;1.00
59469;DHT22;45277;52.768;18.262;2023-05-29T09:34:53;22.10;1.00
59469;DHT22;45277;52.768;18.262;2023-05-29T09:36:25;22.10;1.00
59469;DHT22;45277;52.768;18.262;2023-05-29T09:37:57;22.20;1.00
59469;DHT22;45277;52.768;18.262;2023-05-29T09:39:28;22.40;1.00
59469;DHT22;45277;52.768;18.262;2023-05-29T09:41:04;22.40;1.00
59469;DHT22;45277;52.768;18.262;2023-05-29T09:42:37;22.20;1.00
59469;DHT22;45277;52.768;18.262;2023-05-29T09:44:15;22.10;1.00
59469;DHT22;45277;52.768;18.262;2023-05-29T09:45:48;22.20;1.00
59469;DHT22;45277;52.768;18.262;2023-05-29T09:47:21;22.40;1.00